Time;durP1;ratioP1;P1;durP2;ratioP2;P2;SDS_P1;SDS_P2;PMS_P1;PMS_P2;Temp;Humidity;BMP_temperature;BMP_pressure;BME280_temperature;BME280_humidity;BME280_pressure;Samples;Min_cycle;Max_cycle;Signal;HPM_P1;HPM_P2
2022/07/07 00:01:41;;;;;;;5.82;4.88;;;;;;;18.01;68.23;101884.03;4968553;28;20101;-82
2022/07/07 00:04:08;;;;;;;8.18;4.78;;;;;;;17.95;68.11;101870.97;4969619;28;20018;-81
2022/07/07 00:06:34;;;;;;;6.80;5.10;;;;;;;17.97;68.57;101865.47;4970100;28;20035;-81
2022/07/07 00:09:00;;;;;;;6.95;5.15;;;;;;;17.97;68.79;101874.44;4968354;28;20397;-81
2022/07/07 00:11:25;;;;;;;5.60;4.63;;;;;;;17.97;67.85;101868.19;4968951;28;20030;-81
2022/07/07 00:13:52;;;;;;;8.27;5.45;;;;;;;17.96;68.60;101863.75;4961582;28;20473;-81
2022/07/07 00:16:18;;;;;;;6.85;5.53;;;;;;;17.94;68.30;101866.56;4963927;28;20042;-81
2022/07/07 00:18:44;;;;;;;7.15;5.45;;;;;;;17.94;69.09;101854.94;4969681;28;20448;-81
2022/07/07 00:21:09;;;;;;;8.13;5.28;;;;;;;17.90;68.78;101852.44;4970061;28;20038;-81
2022/07/07 00:23:35;;;;;;;6.15;4.65;;;;;;;17.98;68.32;101859.16;4969133;28;20246;-81
2022/07/07 00:26:00;;;;;;;7.60;5.00;;;;;;;18.00;68.57;101846.44;4970888;28;20022;-81
2022/07/07 00:28:26;;;;;;;7.30;5.32;;;;;;;18.02;68.63;101852.59;4960870;28;20744;-81
2022/07/07 00:30:51;;;;;;;7.03;5.32;;;;;;;18.04;68.38;101848.81;4969256;28;20026;-81
2022/07/07 00:33:17;;;;;;;6.70;4.45;;;;;;;18.05;68.73;101845.16;4971569;28;20038;-81
2022/07/07 00:35:42;;;;;;;6.93;4.90;;;;;;;18.05;68.48;101833.50;4970471;28;20090;-81
2022/07/07 00:38:07;;;;;;;7.07;4.70;;;;;;;17.98;68.75;101829.53;4970163;28;20026;-82
2022/07/07 00:40:33;;;;;;;5.88;4.40;;;;;;;18.02;68.96;101828.34;4989362;28;20073;-81
2022/07/07 00:42:59;;;;;;;5.90;4.30;;;;;;;18.03;67.83;101822.00;4989188;28;20031;-83
2022/07/07 00:45:25;;;;;;;5.90;4.90;;;;;;;17.98;68.88;101814.22;4985384;28;20027;-81
2022/07/07 00:47:50;;;;;;;6.55;4.57;;;;;;;17.97;68.99;101808.91;4970323;28;20027;-81
2022/07/07 00:50:16;;;;;;;4.80;4.30;;;;;;;17.99;69.40;101812.38;4970995;28;20047;-82
2022/07/07 00:52:41;;;;;;;5.65;4.68;;;;;;;17.96;69.29;101802.66;4969841;28;20043;-81
2022/07/07 00:55:10;;;;;;;5.30;4.43;;;;;;;18.00;69.41;101814.13;4972776;28;20027;-81
2022/07/07 00:57:36;;;;;;;6.25;4.32;;;;;;;18.00;69.01;101803.34;4988590;28;20054;-81
2022/07/07 01:00:10;;;;;;;6.25;4.28;;;;;;;18.02;69.46;101806.81;4976075;28;20023;-81
2022/07/07 01:02:36;;;;;;;7.07;4.82;;;;;;;18.03;68.89;101800.44;4994402;28;20440;-81
2022/07/07 01:05:04;;;;;;;7.82;4.30;;;;;;;18.05;69.31;101804.75;4969816;28;20066;-81
2022/07/07 01:07:31;;;;;;;5.90;4.50;;;;;;;18.08;69.18;101798.31;4968866;28;20066;-81
2022/07/07 01:09:57;;;;;;;7.00;4.40;;;;;;;18.09;69.16;101800.88;4969955;28;20046;-81
2022/07/07 01:12:23;;;;;;;5.30;4.75;;;;;;;18.10;68.98;101812.50;4969905;28;20023;-79
2022/07/07 01:14:48;;;;;;;5.30;4.20;;;;;;;18.09;69.42;101808.97;4967933;28;20031;-80
2022/07/07 01:17:13;;;;;;;5.63;4.72;;;;;;;18.09;69.19;101808.09;4964930;28;20065;-81
2022/07/07 01:19:39;;;;;;;6.38;4.82;;;;;;;18.08;69.08;101799.16;4970125;28;20049;-80
2022/07/07 01:22:11;;;;;;;6.93;4.88;;;;;;;18.09;69.09;101797.31;4971990;28;20064;-80
2022/07/07 01:24:36;;;;;;;6.38;4.38;;;;;;;18.05;69.52;101811.97;4969250;28;20126;-81
2022/07/07 01:27:12;;;;;;;6.93;4.50;;;;;;;18.05;69.50;101810.13;4967649;28;20110;-80
2022/07/07 01:29:43;;;;;;;5.43;4.28;;;;;;;18.04;69.70;101788.69;4968506;28;20030;-80
2022/07/07 01:32:09;;;;;;;7.53;4.80;;;;;;;18.05;69.66;101785.88;4968052;28;20033;-81
2022/07/07 01:34:38;;;;;;;6.70;4.95;;;;;;;18.05;69.70;101798.50;4969304;28;20117;-80
2022/07/07 01:37:04;;;;;;;5.55;4.25;;;;;;;18.02;70.15;101796.91;4963684;28;20048;-80
2022/07/07 01:39:29;;;;;;;4.88;4.03;;;;;;;18.04;70.13;101788.69;4968399;28;20495;-80
2022/07/07 01:41:54;;;;;;;6.53;4.60;;;;;;;18.02;70.11;101787.94;4968835;28;20089;-80
2022/07/07 01:44:20;;;;;;;7.40;4.60;;;;;;;17.98;70.01;101767.56;4968367;28;20444;-81
2022/07/07 01:46:45;;;;;;;5.45;4.68;;;;;;;18.01;70.09;101775.44;4963828;28;20532;-80
2022/07/07 01:49:11;;;;;;;8.23;4.50;;;;;;;18.00;70.24;101771.88;4967492;28;20038;-81
2022/07/07 01:51:37;;;;;;;6.95;4.80;;;;;;;17.94;70.36;101761.53;4966393;28;20070;-81
2022/07/07 01:54:02;;;;;;;7.25;4.70;;;;;;;17.97;70.54;101768.50;4968328;28;20397;-81
2022/07/07 01:56:28;;;;;;;6.18;4.60;;;;;;;17.95;71.10;101767.78;4967204;28;20113;-80
2022/07/07 01:58:53;;;;;;;5.32;4.43;;;;;;;17.93;70.90;101759.78;4970014;28;20441;-80
2022/07/07 02:01:18;;;;;;;5.45;4.47;;;;;;;17.98;71.08;101768.44;4967099;28;20440;-81
2022/07/07 02:03:44;;;;;;;6.93;4.78;;;;;;;17.96;70.73;101761.41;4954341;28;20035;-81
2022/07/07 02:06:09;;;;;;;7.10;4.50;;;;;;;17.92;71.15;101766.13;4965729;28;20038;-81
2022/07/07 02:08:34;;;;;;;5.70;4.40;;;;;;;17.95;70.46;101770.47;4968574;28;20034;-80
2022/07/07 02:11:15;;;;;;;5.13;4.45;;;;;;;17.94;71.51;101771.44;4968022;28;20088;-81
2022/07/07 02:13:45;;;;;;;4.88;4.28;;;;;;;17.94;71.73;101769.59;4968477;28;20472;-81
2022/07/07 02:16:12;;;;;;;7.25;4.50;;;;;;;17.92;71.56;101760.75;4965781;28;20455;-81
2022/07/07 02:18:39;;;;;;;6.78;4.47;;;;;;;17.87;71.84;101763.75;4959337;28;20198;-82
2022/07/07 02:21:06;;;;;;;6.60;4.60;;;;;;;17.89;72.17;101775.31;4966326;28;20388;-81
2022/07/07 02:23:33;;;;;;;6.18;4.75;;;;;;;17.82;72.33;101751.56;4968438;28;20037;-81
2022/07/07 02:25:58;;;;;;;6.45;5.05;;;;;;;17.83;72.82;101756.00;4965069;28;20026;-81
2022/07/07 02:28:24;;;;;;;6.75;4.65;;;;;;;17.84;72.17;101755.88;4966771;28;20033;-81
2022/07/07 02:30:51;;;;;;;5.72;4.40;;;;;;;17.82;72.49;101755.13;4967241;28;20035;-81
2022/07/07 02:33:16;;;;;;;9.18;4.50;;;;;;;17.84;72.35;101755.88;4968691;28;20031;-81
2022/07/07 02:35:42;;;;;;;6.85;4.53;;;;;;;17.78;72.87;101756.28;4968156;28;20389;-80
2022/07/07 02:38:07;;;;;;;6.43;4.63;;;;;;;17.80;73.01;101765.13;4965572;28;20039;-80
2022/07/07 02:40:32;;;;;;;9.00;4.85;;;;;;;17.81;73.25;101761.47;4954585;28;20031;-81
2022/07/07 02:42:58;;;;;;;6.55;4.53;;;;;;;17.78;73.27;101753.59;4969351;28;20342;-80
2022/07/07 02:45:23;;;;;;;7.68;5.10;;;;;;;17.74;73.30;101749.38;4974208;28;20038;-80
2022/07/07 02:47:48;;;;;;;8.32;4.68;;;;;;;17.77;73.56;101759.97;4985034;28;20103;-81
2022/07/07 02:50:14;;;;;;;6.82;4.97;;;;;;;17.74;75.58;101753.88;4982208;28;20058;-81
2022/07/07 02:52:39;;;;;;;6.05;4.57;;;;;;;17.56;75.73;101750.59;4982457;28;20043;-80
2022/07/07 02:55:05;;;;;;;6.70;4.90;;;;;;;17.52;75.91;101746.38;4988984;28;20043;-81
2022/07/07 02:57:30;;;;;;;7.53;4.70;;;;;;;17.46;76.35;101741.38;4978062;28;20038;-80
2022/07/07 02:59:56;;;;;;;6.30;4.40;;;;;;;17.48;76.60;101742.16;4968226;28;20491;-80
2022/07/07 03:02:21;;;;;;;8.85;4.40;;;;;;;17.48;75.88;101742.16;4965510;28;20027;-81
2022/07/07 03:04:46;;;;;;;7.10;4.78;;;;;;;17.50;75.66;101754.53;4969545;28;20535;-80
2022/07/07 03:07:11;;;;;;;7.88;4.43;;;;;;;17.53;75.40;101745.41;4967148;28;20022;-80
2022/07/07 03:09:37;;;;;;;6.47;4.10;;;;;;;17.54;75.00;101747.97;4961792;28;20118;-81
2022/07/07 03:12:02;;;;;;;6.32;4.43;;;;;;;17.59;75.52;101753.91;4966305;28;20428;-80
2022/07/07 03:14:27;;;;;;;7.65;4.38;;;;;;;17.61;75.39;101745.75;4968220;28;20050;-80
2022/07/07 03:16:53;;;;;;;5.30;3.83;;;;;;;17.60;75.71;101752.13;4967227;28;20023;-80
2022/07/07 03:19:18;;;;;;;7.15;4.03;;;;;;;17.60;76.64;101757.50;4969991;28;20420;-80
2022/07/07 03:21:43;;;;;;;11.52;4.82;;;;;;;17.39;80.21;101744.47;4969212;28;20029;-80
2022/07/07 03:24:09;;;;;;;7.80;4.25;;;;;;;17.18;81.56;101765.56;4970593;28;20069;-80
2022/07/07 03:26:34;;;;;;;11.20;4.20;;;;;;;16.98;82.88;101762.41;4960275;28;20067;-80
2022/07/07 03:28:59;;;;;;;6.78;4.78;;;;;;;16.82;83.82;101760.69;4965844;28;20405;-81
2022/07/07 03:31:25;;;;;;;5.95;4.18;;;;;;;16.71;84.01;101757.75;4959391;28;20033;-81
2022/07/07 03:33:50;;;;;;;6.72;4.55;;;;;;;16.63;85.40;101760.03;4965338;28;20035;-80
2022/07/07 03:36:16;;;;;;;10.15;4.55;;;;;;;16.57;87.19;101757.75;4970862;28;20082;-80
2022/07/07 03:38:42;;;;;;;7.07;4.05;;;;;;;16.42;88.28;101752.34;4970881;28;20039;-80
2022/07/07 03:41:07;;;;;;;5.90;4.53;;;;;;;16.31;88.80;101759.34;4970300;28;20135;-81
2022/07/07 03:43:32;;;;;;;7.72;4.30;;;;;;;16.17;90.29;101763.69;4967780;28;20035;-80
2022/07/07 03:45:58;;;;;;;4.95;4.18;;;;;;;16.09;90.26;101763.31;4967951;28;20026;-81
2022/07/07 03:48:23;;;;;;;5.50;4.22;;;;;;;15.98;90.61;101763.09;4984518;28;20485;-81
2022/07/07 03:50:48;;;;;;;3.33;2.67;;;;;;;15.90;91.33;101760.84;4968664;28;20043;-80
2022/07/07 03:53:13;;;;;;;3.60;2.90;;;;;;;15.70;91.33;101763.81;4971648;28;20451;-81
2022/07/07 03:55:39;;;;;;;3.72;2.70;;;;;;;15.57;92.50;101778.88;4966776;28;20151;-81
2022/07/07 03:58:04;;;;;;;4.55;2.92;;;;;;;15.48;93.77;101772.22;4969882;28;20481;-82
2022/07/07 04:00:29;;;;;;;5.10;3.13;;;;;;;15.33;95.05;101765.00;4968834;28;20026;-82
2022/07/07 04:02:55;;;;;;;3.58;3.00;;;;;;;15.38;96.75;101777.22;4971109;28;20109;-82
2022/07/07 04:05:20;;;;;;;3.95;3.22;;;;;;;15.38;96.60;101782.59;4969362;28;20023;-82
2022/07/07 04:07:45;;;;;;;3.88;3.00;;;;;;;15.35;96.28;101773.84;4970871;28;20035;-82
2022/07/07 04:10:11;;;;;;;4.93;3.10;;;;;;;15.27;97.03;101774.28;4966253;28;20042;-82
2022/07/07 04:12:36;;;;;;;4.32;3.47;;;;;;;15.20;97.18;101770.19;4966425;28;20370;-82
2022/07/07 04:15:02;;;;;;;6.07;4.32;;;;;;;15.19;97.97;101766.66;4968758;28;20114;-82
2022/07/07 04:17:27;;;;;;;4.22;3.83;;;;;;;15.20;98.25;101767.50;4968816;28;20453;-82
2022/07/07 04:19:53;;;;;;;5.25;4.57;;;;;;;15.24;99.09;101765.53;4960345;28;20034;-82
2022/07/07 04:22:18;;;;;;;5.40;4.45;;;;;;;15.20;98.49;101754.09;4958953;28;20122;-82
2022/07/07 04:24:43;;;;;;;7.18;4.65;;;;;;;15.26;98.16;101756.47;4959077;28;20658;-82
2022/07/07 04:27:10;;;;;;;6.43;5.03;;;;;;;15.27;98.65;101755.50;4964564;28;20026;-82
2022/07/07 04:29:35;;;;;;;5.63;5.10;;;;;;;15.24;98.62;101744.94;4959337;28;20035;-82
2022/07/07 04:32:00;;;;;;;7.65;5.30;;;;;;;15.28;98.71;101751.84;4959781;28;20042;-82
2022/07/07 04:34:26;;;;;;;5.55;4.80;;;;;;;15.27;98.56;101746.59;4958144;28;20130;-82
2022/07/07 04:36:51;;;;;;;6.00;4.90;;;;;;;15.30;99.01;101747.28;4959209;28;20045;-83
2022/07/07 04:39:17;;;;;;;6.88;5.03;;;;;;;15.27;99.38;101752.81;4959083;28;20026;-82
2022/07/07 04:41:42;;;;;;;5.10;4.60;;;;;;;15.31;99.25;101759.75;4963011;28;20092;-82
2022/07/07 04:44:07;;;;;;;8.43;5.00;;;;;;;15.27;99.19;101744.78;4962208;28;20046;-82
2022/07/07 04:46:33;;;;;;;7.85;5.15;;;;;;;15.35;99.08;101753.25;4959649;28;21175;-82
2022/07/07 04:48:58;;;;;;;6.80;4.43;;;;;;;15.37;98.40;101756.69;4960826;28;20510;-82
2022/07/07 04:51:24;;;;;;;7.10;4.80;;;;;;;15.38;98.85;101757.56;4970793;28;20122;-81
2022/07/07 04:53:50;;;;;;;6.93;4.28;;;;;;;15.45;99.08;101764.31;4969008;28;20039;-82
2022/07/07 04:56:15;;;;;;;7.03;4.40;;;;;;;15.50;98.45;101772.97;4969659;28;20691;-82
2022/07/07 04:58:41;;;;;;;7.68;4.53;;;;;;;15.49;98.40;101775.75;4968251;28;20111;-82
2022/07/07 05:01:07;;;;;;;7.15;4.35;;;;;;;15.47;98.29;101775.84;4971414;28;20416;-82
2022/07/07 05:03:33;;;;;;;4.82;4.25;;;;;;;15.48;99.25;101785.63;4969828;28;20109;-82
2022/07/07 05:05:58;;;;;;;5.05;4.55;;;;;;;15.44;98.77;101790.28;4969534;28;20116;-83
2022/07/07 05:08:24;;;;;;;5.68;3.90;;;;;;;15.41;99.03;101793.13;4969968;28;20041;-83
2022/07/07 05:10:49;;;;;;;5.85;3.53;;;;;;;15.35;98.63;101789.94;4969808;28;20026;-83
2022/07/07 05:13:15;;;;;;;4.32;3.25;;;;;;;15.33;99.54;101792.69;4982715;28;20031;-82
2022/07/07 05:15:40;;;;;;;4.38;2.80;;;;;;;15.34;99.28;101794.44;4967990;28;20035;-78
2022/07/07 05:18:05;;;;;;;2.92;2.63;;;;;;;15.40;99.38;101799.47;4970865;28;20034;-81
2022/07/07 05:20:31;;;;;;;3.42;2.22;;;;;;;15.37;97.73;101804.13;4970504;28;20034;-83
2022/07/07 05:22:56;;;;;;;2.75;2.22;;;;;;;15.40;97.88;101802.13;4970363;28;20038;-78
2022/07/07 05:25:21;;;;;;;4.03;2.05;;;;;;;15.38;97.89;101801.38;4970001;28;20027;-80
2022/07/07 05:27:48;;;;;;;3.22;1.90;;;;;;;15.41;98.36;101819.09;4969452;28;20396;-79
2022/07/07 05:30:13;;;;;;;2.17;1.98;;;;;;;15.43;97.75;101811.84;4969553;28;20352;-84
2022/07/07 05:32:39;;;;;;;6.22;1.90;;;;;;;15.47;97.44;101815.19;4969025;28;20463;-82
2022/07/07 05:35:05;;;;;;;4.32;1.92;;;;;;;15.48;96.39;101820.50;4968808;28;20039;-82
2022/07/07 05:37:30;;;;;;;3.75;2.13;;;;;;;15.46;96.87;101814.34;4966915;28;20109;-82
2022/07/07 05:39:56;;;;;;;5.70;2.03;;;;;;;15.48;97.34;101823.19;4969966;28;20416;-82
2022/07/07 05:42:21;;;;;;;4.97;2.20;;;;;;;15.55;97.06;101829.06;4966984;28;20465;-82
2022/07/07 05:44:56;;;;;;;4.40;2.10;;;;;;;15.63;96.62;101832.16;4967739;28;20030;-81
2022/07/07 05:47:21;;;;;;;5.78;2.38;;;;;;;15.68;96.23;101830.16;4977334;28;20559;-81
2022/07/07 05:49:46;;;;;;;3.90;1.77;;;;;;;15.72;96.03;101820.97;4964302;28;20138;-82
2022/07/07 05:52:12;;;;;;;8.35;1.92;;;;;;;15.82;95.41;101827.53;4970861;28;20452;-82
2022/07/07 05:54:37;;;;;;;3.72;1.98;;;;;;;15.97;93.77;101836.53;4966926;28;20022;-82
2022/07/07 05:57:03;;;;;;;6.13;1.92;;;;;;;16.13;93.74;101847.22;4968503;28;20039;-81
2022/07/07 05:59:28;;;;;;;6.05;2.20;;;;;;;16.23;93.12;101844.91;4971395;28;20023;-81
2022/07/07 06:01:54;;;;;;;4.97;2.00;;;;;;;16.43;93.55;101841.91;4971719;28;20030;-81
2022/07/07 06:04:19;;;;;;;5.82;1.98;;;;;;;16.75;92.35;101850.72;4966868;28;20465;-81
2022/07/07 06:06:44;;;;;;;6.97;2.10;;;;;;;17.07;89.99;101853.28;4972283;28;20537;-80
2022/07/07 06:09:09;;;;;;;3.45;1.55;;;;;;;17.17;86.81;101857.09;4971748;28;20085;-82
2022/07/07 06:11:38;;;;;;;5.10;1.50;;;;;;;17.16;86.85;101866.16;4988188;28;20035;-81
2022/07/07 06:14:03;;;;;;;4.82;1.42;;;;;;;17.08;87.12;101871.13;4984414;28;20027;-81
2022/07/07 06:16:43;;;;;;;3.65;1.30;;;;;;;16.81;86.66;101879.94;4986079;28;20069;-83
2022/07/07 06:19:10;;;;;;;5.80;1.80;;;;;;;16.53;89.25;101887.91;4985438;28;20045;-81
2022/07/07 06:21:37;;;;;;;5.28;1.67;;;;;;;16.35;89.97;101896.09;4990080;28;20027;-82
2022/07/07 06:24:03;;;;;;;6.80;1.67;;;;;;;16.35;90.87;101893.41;4986364;28;20007;-82
2022/07/07 06:26:28;;;;;;;7.38;1.70;;;;;;;16.32;88.80;101890.88;4987711;28;20033;-82
2022/07/07 06:28:53;;;;;;;6.50;1.60;;;;;;;16.55;86.87;101894.03;4991953;28;20066;-81
2022/07/07 06:31:19;;;;;;;4.53;1.30;;;;;;;16.67;85.85;101910.28;4992363;28;20035;-82
2022/07/07 06:33:44;;;;;;;6.07;3.08;;;;;;;16.83;85.41;101904.91;4979142;28;20030;-81
2022/07/07 06:36:10;;;;;;;4.65;1.92;;;;;;;16.91;82.30;101899.94;4968060;28;20373;-82
2022/07/07 06:38:35;;;;;;;4.50;1.73;;;;;;;16.99;81.44;101906.66;4970809;28;20038;-81
2022/07/07 06:41:00;;;;;;;6.85;1.58;;;;;;;17.23;80.44;101915.06;4973962;28;20027;-81
2022/07/07 06:43:26;;;;;;;4.45;1.70;;;;;;;17.26;80.07;101909.47;4964665;28;20037;-82
2022/07/07 06:45:51;;;;;;;6.65;1.55;;;;;;;17.27;79.26;101906.72;4969194;28;20030;-81
2022/07/07 06:48:17;;;;;;;4.45;1.65;;;;;;;17.42;78.29;101915.63;4969264;28;20023;-81
2022/07/07 06:50:42;;;;;;;5.22;1.20;;;;;;;17.59;76.40;101912.75;4967191;28;20047;-80
2022/07/07 06:53:08;;;;;;;8.52;1.88;;;;;;;17.71;75.19;101926.41;4963105;28;20022;-80
2022/07/07 06:55:33;;;;;;;7.03;2.05;;;;;;;17.73;74.50;101932.56;4965770;28;20027;-81
2022/07/07 06:57:59;;;;;;;8.20;2.20;;;;;;;17.82;73.88;101929.31;4966332;28;20027;-81
2022/07/07 07:00:24;;;;;;;10.60;2.22;;;;;;;17.87;72.88;101933.44;4971943;28;20054;-82
2022/07/07 07:02:50;;;;;;;7.72;1.75;;;;;;;17.92;72.33;101943.91;4969635;28;20035;-82
2022/07/07 07:05:15;;;;;;;10.48;1.83;;;;;;;17.77;71.30;101943.06;4963248;28;20627;-78
2022/07/07 07:07:41;;;;;;;5.68;1.38;;;;;;;17.25;74.12;101970.50;4968241;28;20062;-79
2022/07/07 07:10:07;;;;;;;3.40;1.10;;;;;;;16.47;77.37;101955.41;4968045;28;20039;-78
2022/07/07 07:12:32;;;;;;;6.80;1.10;;;;;;;16.24;80.18;101956.75;4972932;28;20030;-79
2022/07/07 07:14:57;;;;;;;6.72;1.42;;;;;;;16.39;81.73;101959.44;4965518;28;20070;-78
2022/07/07 07:17:23;;;;;;;4.85;1.20;;;;;;;16.68;79.43;101955.06;4968330;28;20026;-79
2022/07/07 07:19:48;;;;;;;3.28;1.25;;;;;;;17.06;77.08;101954.63;4965546;28;20421;-79
2022/07/07 07:22:13;;;;;;;3.90;1.40;;;;;;;17.45;77.03;101953.13;4968265;28;20031;-78
2022/07/07 07:24:39;;;;;;;4.32;1.30;;;;;;;17.79;74.86;101954.59;4962963;28;20361;-77
2022/07/07 07:27:04;;;;;;;8.75;2.92;;;;;;;18.17;73.92;101953.94;4971049;28;20023;-77
2022/07/07 07:29:29;;;;;;;6.90;2.55;;;;;;;18.41;71.12;101938.88;4965497;28;20038;-77
2022/07/07 07:31:55;;;;;;;6.57;1.50;;;;;;;18.95;69.95;101956.00;4971532;28;20026;-77
2022/07/07 07:34:20;;;;;;;4.82;1.50;;;;;;;19.17;66.57;101961.63;4968511;28;20424;-77
2022/07/07 07:36:45;;;;;;;3.47;1.08;;;;;;;19.41;67.02;101970.72;4968608;28;20088;-78
2022/07/07 07:39:11;;;;;;;11.05;1.63;;;;;;;19.58;66.51;101968.66;4969162;28;20261;-77
2022/07/07 07:41:37;;;;;;;3.45;1.10;;;;;;;19.33;64.98;101967.69;4966463;28;20481;-78
2022/07/07 07:44:03;;;;;;;5.50;1.20;;;;;;;19.73;64.78;101977.53;4965894;28;20037;-78
2022/07/07 07:46:28;;;;;;;9.68;1.52;;;;;;;20.52;62.03;101979.81;4968728;28;20488;-78
2022/07/07 07:48:53;;;;;;;4.57;1.10;;;;;;;21.50;60.38;101979.59;4966004;28;20043;-78
2022/07/07 07:51:19;;;;;;;6.70;1.20;;;;;;;22.48;55.71;101983.34;4968837;28;20125;-78
2022/07/07 07:53:44;;;;;;;3.92;1.20;;;;;;;22.75;53.86;101968.44;4965241;28;20168;-82
2022/07/07 07:56:10;;;;;;;3.90;1.00;;;;;;;22.50;53.91;101981.38;4968610;28;20109;-81
2022/07/07 07:58:35;;;;;;;3.70;1.30;;;;;;;21.95;54.84;101985.03;4964550;28;20042;-81
2022/07/07 08:01:00;;;;;;;4.38;1.30;;;;;;;21.03;57.03;101986.84;4966086;28;20436;-81
2022/07/07 08:03:26;;;;;;;5.68;1.20;;;;;;;20.49;58.66;101985.50;4981668;28;20049;-81
2022/07/07 08:05:51;;;;;;;6.72;1.67;;;;;;;20.04;60.01;101995.97;4972627;28;20269;-80
2022/07/07 08:08:16;;;;;;;4.78;1.17;;;;;;;19.49;61.96;102002.59;4969472;28;20175;-81
2022/07/07 08:10:42;;;;;;;4.55;1.30;;;;;;;18.75;66.42;102000.50;4974048;28;20031;-81
2022/07/07 08:13:07;;;;;;;4.63;1.45;;;;;;;18.25;67.01;102013.59;4972378;28;20215;-80
2022/07/07 08:15:32;;;;;;;7.85;1.65;;;;;;;17.96;69.76;102023.53;4963845;28;20059;-80
2022/07/07 08:17:58;;;;;;;2.53;1.17;;;;;;;17.40;72.89;102027.91;4969535;28;20019;-81
2022/07/07 08:20:23;;;;;;;2.65;1.25;;;;;;;16.99;75.45;102019.63;4972760;28;20388;-81
2022/07/07 08:22:48;;;;;;;4.70;1.52;;;;;;;17.04;75.33;102023.75;4965045;28;20109;-82
2022/07/07 08:25:14;;;;;;;6.05;1.40;;;;;;;17.28;73.65;102028.66;4973716;28;20031;-82
2022/07/07 08:27:39;;;;;;;3.17;1.10;;;;;;;17.63;71.25;102026.50;4968392;28;20045;-81
2022/07/07 08:30:05;;;;;;;3.45;0.95;;;;;;;18.19;70.47;102027.50;4969618;28;20034;-81
2022/07/07 08:32:30;;;;;;;2.10;1.00;;;;;;;18.64;67.19;102018.25;4968873;28;20496;-80
2022/07/07 08:34:56;;;;;;;2.55;0.82;;;;;;;19.13;65.79;102027.56;4968744;28;20031;-81
2022/07/07 08:37:21;;;;;;;3.60;1.25;;;;;;;19.33;64.77;102028.91;4983181;28;20059;-81
2022/07/07 08:39:46;;;;;;;2.47;0.82;;;;;;;19.32;64.09;102030.75;4988245;28;20107;-81
2022/07/07 08:42:12;;;;;;;3.95;1.20;;;;;;;19.21;66.61;102030.63;4975874;28;20132;-81
2022/07/07 08:44:37;;;;;;;5.65;1.27;;;;;;;18.99;65.12;102043.84;4968814;28;20388;-81
2022/07/07 08:47:03;;;;;;;4.55;1.40;;;;;;;18.89;66.47;102046.28;4975444;28;20030;-81
2022/07/07 08:49:29;;;;;;;5.15;0.98;;;;;;;18.65;67.18;102048.75;4973683;28;20567;-81
2022/07/07 08:51:56;;;;;;;2.85;0.95;;;;;;;18.64;67.82;102045.19;4968315;28;20041;-81
2022/07/07 08:54:23;;;;;;;6.30;1.20;;;;;;;18.66;66.32;102045.94;4968835;28;20086;-82
2022/07/07 08:56:48;;;;;;;5.93;1.50;;;;;;;18.65;64.89;102054.16;4973610;28;20773;-82
2022/07/07 08:59:14;;;;;;;4.68;1.10;;;;;;;18.73;66.48;102053.66;4976947;28;20082;-81
2022/07/07 09:01:40;;;;;;;5.05;1.27;;;;;;;19.01;65.72;102055.38;4974979;28;20029;-81
2022/07/07 09:04:06;;;;;;;6.10;1.60;;;;;;;20.37;62.11;102046.72;4968009;28;20035;-81
2022/07/07 09:06:32;;;;;;;2.50;0.90;;;;;;;22.80;55.15;102048.50;4970782;28;20041;-81
2022/07/07 09:08:58;;;;;;;2.28;0.85;;;;;;;24.83;48.66;102059.69;4974744;28;20467;-81
2022/07/07 09:11:34;;;;;;;3.75;0.88;;;;;;;24.76;49.78;102047.63;4970156;28;20065;-80
2022/07/07 09:14:12;;;;;;;3.55;1.10;;;;;;;24.90;50.22;102062.69;4969834;28;20042;-82
2022/07/07 09:16:38;;;;;;;4.07;0.98;;;;;;;24.34;47.80;102055.13;4969228;28;20026;-81
2022/07/07 09:19:07;;;;;;;4.43;1.20;;;;;;;22.93;50.73;102063.78;4979169;28;20069;-81
2022/07/07 09:21:33;;;;;;;5.07;1.35;;;;;;;21.62;53.54;102066.16;4978154;28;20122;-81
2022/07/07 09:24:00;;;;;;;2.33;0.95;;;;;;;20.64;55.62;102070.88;4983315;28;20110;-81
2022/07/07 09:26:44;;;;;;;5.90;1.15;;;;;;;20.14;58.49;102075.41;4987576;28;20037;-80
2022/07/07 09:29:13;;;;;;;;;;;;;;;20.03;58.83;102075.31;4983351;28;20038;-81
2022/07/07 09:31:57;;;;;;;6.68;1.45;;;;;;;19.72;59.71;102086.56;4984316;28;19941;-81
2022/07/07 09:34:28;;;;;;;8.35;1.20;;;;;;;19.46;60.56;102086.50;4978398;28;20045;-83
2022/07/07 09:39:43;;;;;;;8.23;2.00;;;;;;;19.40;61.32;102089.63;4989367;28;20448;-81
2022/07/07 09:42:23;;;;;;;5.40;1.30;;;;;;;19.56;60.65;102100.22;4980151;28;20031;-81
2022/07/07 09:44:55;;;;;;;3.63;1.20;;;;;;;19.82;59.69;102110.13;4973368;28;20477;-81
2022/07/07 09:47:21;;;;;;;7.80;1.17;;;;;;;19.99;58.80;102103.53;4977293;28;20042;-81
2022/07/07 09:49:59;;;;;;;3.05;1.10;;;;;;;20.13;59.42;102105.25;4970854;28;20121;-81
2022/07/07 09:52:24;;;;;;;4.30;1.00;;;;;;;19.89;59.24;102103.31;4970878;28;20030;-81
2022/07/07 09:54:50;;;;;;;3.97;1.30;;;;;;;19.88;59.17;102104.28;4975140;28;20388;-80
2022/07/07 09:57:19;;;;;;;6.32;1.30;;;;;;;20.06;59.21;102114.75;4971224;28;20023;-81
2022/07/07 09:59:44;;;;;;;6.15;1.10;;;;;;;20.26;57.81;102116.91;4963456;28;20058;-81
2022/07/07 10:02:27;;;;;;;4.70;1.35;;;;;;;20.35;58.53;102118.09;4970913;28;20293;-81
2022/07/07 10:04:55;;;;;;;4.88;1.55;;;;;;;19.97;59.28;102127.09;4969860;28;20109;-82
2022/07/07 10:07:22;;;;;;;2.97;0.90;;;;;;;19.80;60.37;102127.41;4966659;28;20026;-82
2022/07/07 10:09:54;;;;;;;3.45;1.00;;;;;;;19.49;60.18;102134.03;4968743;28;20321;-81
2022/07/07 10:12:22;;;;;;;3.38;0.90;;;;;;;19.20;62.47;102142.25;4969355;28;20130;-82
2022/07/07 10:14:49;;;;;;;2.78;0.90;;;;;;;18.86;64.86;102141.78;4963988;28;20034;-81
2022/07/07 10:17:16;;;;;;;3.75;1.20;;;;;;;18.26;66.76;102138.44;4960284;28;20037;-82
2022/07/07 10:19:43;;;;;;;4.22;1.25;;;;;;;18.01;69.47;102144.47;4970990;28;20018;-80
2022/07/07 10:22:11;;;;;;;3.13;0.90;;;;;;;18.02;70.48;102155.19;4969474;28;20031;-81
2022/07/07 10:24:38;;;;;;;5.95;1.23;;;;;;;18.43;70.14;102151.72;4970838;28;20038;-80
2022/07/07 10:27:04;;;;;;;2.92;0.93;;;;;;;19.89;65.13;102146.53;4965672;28;20031;-81
2022/07/07 10:29:40;;;;;;;2.50;1.00;;;;;;;21.09;60.15;102149.63;4969999;28;20117;-80
2022/07/07 10:32:07;;;;;;;2.63;1.40;;;;;;;21.02;58.33;102161.88;4959627;28;20047;-80
2022/07/07 10:34:33;;;;;;;3.20;1.00;;;;;;;20.48;59.33;102158.63;4964348;28;20034;-81
2022/07/07 10:37:04;;;;;;;2.67;0.90;;;;;;;19.93;61.39;102167.94;4968886;28;20038;-81
2022/07/07 10:39:40;;;;;;;3.45;1.17;;;;;;;19.48;64.85;102178.19;4968984;28;20023;-81
2022/07/07 10:42:14;;;;;;;2.83;1.13;;;;;;;18.79;68.98;102182.72;4964410;28;20042;-81
2022/07/07 10:44:42;;;;;;;4.50;1.27;;;;;;;18.05;74.07;102181.06;4957402;28;20181;-81
2022/07/07 10:47:10;;;;;;;4.20;1.33;;;;;;;17.67;75.44;102186.88;4965749;28;20395;-81
2022/07/07 10:49:40;;;;;;;3.72;1.40;;;;;;;17.67;78.40;102187.75;4967375;28;20042;-81
2022/07/07 10:52:15;;;;;;;2.88;1.20;;;;;;;18.09;75.58;102185.28;4969699;28;20101;-79
2022/07/07 10:54:48;;;;;;;3.15;1.20;;;;;;;19.35;73.04;102191.63;4971274;28;20027;-81
2022/07/07 10:57:16;;;;;;;3.70;1.10;;;;;;;20.85;66.78;102190.19;4968578;28;20027;-81
2022/07/07 10:59:58;;;;;;;4.78;1.27;;;;;;;21.12;63.00;102190.03;4966073;28;20030;-80
2022/07/07 11:02:34;;;;;;;2.03;1.10;;;;;;;20.61;63.28;102186.59;4962600;28;20046;-82
2022/07/07 11:05:02;;;;;;;4.70;1.60;;;;;;;20.32;62.78;102205.72;4968905;28;20118;-81
2022/07/07 11:07:28;;;;;;;4.30;1.40;;;;;;;19.78;63.27;102208.56;4968013;28;20027;-80
2022/07/07 11:10:05;;;;;;;1.65;1.10;;;;;;;19.51;64.32;102207.69;4968912;28;20126;-80
2022/07/07 11:12:45;;;;;;;5.18;1.45;;;;;;;19.21;65.27;102219.56;4964721;28;20042;-81
2022/07/07 11:15:24;;;;;;;2.75;1.00;;;;;;;18.88;67.42;102223.47;4969019;28;20388;-81
2022/07/07 11:17:52;;;;;;;2.45;1.17;;;;;;;18.64;69.30;102222.28;4963646;28;20409;-80
2022/07/07 11:20:24;;;;;;;2.90;1.10;;;;;;;18.49;70.84;102221.44;4966540;28;20023;-81
2022/07/07 11:22:55;;;;;;;4.95;1.52;;;;;;;18.50;71.12;102223.16;4964107;28;20055;-81
2022/07/07 11:25:22;;;;;;;4.30;1.85;;;;;;;18.90;68.67;102228.78;4967423;28;20155;-81